Time;durP1;ratioP1;P1;durP2;ratioP2;P2;SDS_P1;SDS_P2;PMS_P1;PMS_P2;Temp;Humidity;BMP_temperature;BMP_pressure;BME280_temperature;BME280_humidity;BME280_pressure;Samples;Min_cycle;Max_cycle;Signal;HPM_P1;HPM_P2
2022/06/11 00:01:08;;;;;;;17.17;15.38;;;17.80;99.90;;;;;;5079074;28;19916;-48
2022/06/11 00:03:37;;;;;;;21.52;17.15;;;17.70;99.90;;;;;;5090511;28;20040;-47
2022/06/11 00:06:04;;;;;;;18.20;15.77;;;17.70;99.90;;;;;;5090220;28;20451;-47
2022/06/11 00:08:29;;;;;;;17.45;15.75;;;17.70;99.90;;;;;;5075643;28;20036;-47
2022/06/11 00:10:55;;;;;;;21.10;16.58;;;17.70;99.90;;;;;;5083390;28;20520;-47
2022/06/11 00:13:23;;;;;;;21.27;15.07;;;17.60;99.90;;;;;;5071617;28;20129;-47
2022/06/11 00:15:52;;;;;;;18.90;14.75;;;17.60;99.90;;;;;;5089779;28;20089;-46
2022/06/11 00:18:20;;;;;;;19.65;13.32;;;17.60;99.90;;;;;;5091732;28;20071;-47
2022/06/11 00:20:45;;;;;;;16.85;15.13;;;17.50;99.90;;;;;;5093282;28;20036;-48
2022/06/11 00:23:12;;;;;;;16.92;14.90;;;17.50;99.90;;;;;;5090112;28;20062;-47
2022/06/11 00:25:37;;;;;;;21.08;16.40;;;17.50;99.90;;;;;;5093411;28;20143;-47
2022/06/11 00:28:05;;;;;;;18.42;14.90;;;17.50;99.90;;;;;;5083025;28;20123;-47
2022/06/11 00:30:31;;;;;;;18.17;15.85;;;17.50;99.90;;;;;;5071649;28;20049;-48
2022/06/11 00:32:57;;;;;;;18.00;16.15;;;17.50;99.90;;;;;;5072815;28;20589;-47
2022/06/11 00:35:24;;;;;;;21.92;16.15;;;17.50;99.90;;;;;;5072943;28;20036;-47
2022/06/11 00:37:50;;;;;;;22.80;16.98;;;17.50;99.90;;;;;;5072267;28;20090;-47
2022/06/11 00:40:19;;;;;;;17.88;16.02;;;17.50;99.90;;;;;;5072805;28;20044;-48
2022/06/11 00:42:45;;;;;;;19.83;16.67;;;17.50;99.90;;;;;;5076691;28;20067;-48
2022/06/11 00:45:14;;;;;;;18.83;16.83;;;17.40;99.90;;;;;;5080795;28;20535;-47
2022/06/11 00:47:40;;;;;;;28.70;18.15;;;17.40;99.90;;;;;;5085829;28;20483;-47
2022/06/11 00:50:25;;;;;;;22.92;18.20;;;17.50;99.90;;;;;;5072316;28;20493;-47
2022/06/11 00:52:50;;;;;;;21.85;19.35;;;17.40;99.90;;;;;;5083669;28;20752;-48
2022/06/11 00:55:18;;;;;;;21.70;18.17;;;17.40;99.90;;;;;;5090712;28;20148;-47
2022/06/11 00:58:10;;;;;;;20.23;18.10;;;17.50;99.90;;;;;;5079536;28;20093;-48
2022/06/11 01:00:41;;;;;;;24.83;18.30;;;17.50;99.90;;;;;;5082325;28;20121;-47
2022/06/11 01:03:09;;;;;;;18.83;16.80;;;17.40;99.90;;;;;;5079158;28;20115;-47
2022/06/11 01:05:38;;;;;;;20.13;17.95;;;17.40;99.90;;;;;;5087154;28;20043;-47
2022/06/11 01:08:14;;;;;;;21.40;18.50;;;17.40;99.90;;;;;;5090146;28;20079;-47
2022/06/11 01:11:17;;;;;;;20.43;18.10;;;17.40;99.90;;;;;;5072131;28;20047;-47
2022/06/11 01:14:09;;;;;;;32.08;19.30;;;17.40;99.90;;;;;;5086001;28;20111;-47
2022/06/11 01:16:52;;;;;;;18.73;14.18;;;17.30;99.90;;;;;;5075837;28;20043;-48
2022/06/11 01:19:19;;;;;;;15.75;14.18;;;17.30;99.90;;;;;;5074288;28;20040;-47
2022/06/11 01:22:25;;;;;;;15.43;12.32;;;17.30;99.90;;;;;;5079135;28;20048;-47
2022/06/11 01:25:10;;;;;;;13.55;12.05;;;17.20;99.90;;;;;;5086017;28;20044;-48
2022/06/11 01:27:46;;;;;;;15.77;12.73;;;17.20;99.90;;;;;;5073508;28;20036;-47
2022/06/11 01:30:33;;;;;;;15.68;13.13;;;17.10;99.90;;;;;;5080009;28;20505;-47
2022/06/11 01:33:13;;;;;;;11.75;9.90;;;17.10;99.90;;;;;;5071334;28;20111;-47
2022/06/11 01:36:03;;;;;;;15.88;11.57;;;17.00;99.90;;;;;;5075556;28;20086;-47
2022/06/11 01:38:40;;;;;;;11.40;10.20;;;16.90;99.90;;;;;;5078724;28;20435;-47
2022/06/11 01:41:37;;;;;;;16.60;10.50;;;16.80;99.90;;;;;;5084066;28;20032;-47
2022/06/11 01:44:05;;;;;;;;;;;16.80;99.90;;;;;;5086684;28;20040;-47
2022/06/11 01:46:35;;;;;;;;;;;16.80;99.90;;;;;;5071111;28;19931;-48
2022/06/11 01:49:24;;;;;;;10.02;8.80;;;16.80;99.90;;;;;;5086288;28;19916;-46
2022/06/11 01:52:09;;;;;;;11.40;9.70;;;16.80;99.90;;;;;;5090923;28;20040;-47
2022/06/11 01:55:10;;;;;;;13.35;8.90;;;16.70;99.90;;;;;;5076243;28;20041;-49
2022/06/11 01:57:45;;;;;;;15.73;10.85;;;16.60;99.90;;;;;;5071139;28;20040;-47
2022/06/11 02:00:22;;;;;;;17.95;14.07;;;16.60;99.90;;;;;;5086886;28;20047;-48
2022/06/11 02:03:21;;;;;;;21.20;15.02;;;16.60;99.90;;;;;;5075134;28;20390;-47
2022/06/11 02:06:14;;;;;;;17.58;14.10;;;16.60;99.90;;;;;;5072013;28;20591;-46
2022/06/11 02:08:47;;;;;;;19.77;15.75;;;16.60;99.90;;;;;;5082475;28;20390;-47
2022/06/11 02:11:22;;;;;;;20.00;16.13;;;16.50;99.90;;;;;;5080861;28;20071;-47
2022/06/11 02:13:52;;;;;;;21.75;16.00;;;16.50;99.90;;;;;;5074231;28;20127;-47
2022/06/11 02:16:39;;;;;;;20.88;16.20;;;16.50;99.90;;;;;;5071135;28;20385;-48
2022/06/11 02:19:11;;;;;;;19.33;15.00;;;16.50;99.90;;;;;;5070603;28;20520;-47
2022/06/11 02:21:43;;;;;;;20.13;15.38;;;16.60;99.90;;;;;;5070702;28;20051;-47
2022/06/11 02:24:17;;;;;;;21.40;14.25;;;16.60;99.90;;;;;;5086238;28;20119;-47
2022/06/11 02:26:49;;;;;;;21.17;14.30;;;16.60;99.90;;;;;;5081400;28;20135;-46
2022/06/11 02:29:17;;;;;;;15.45;12.18;;;16.60;99.90;;;;;;5070525;28;20090;-47
2022/06/11 02:32:02;;;;;;;14.82;11.35;;;16.50;99.90;;;;;;5078798;28;20044;-47
2022/06/11 02:34:27;;;;;;;13.77;9.85;;;16.50;99.90;;;;;;5086972;28;20359;-47
2022/06/11 02:37:04;;;;;;;13.95;10.68;;;16.50;99.90;;;;;;5090807;28;20036;-47
2022/06/11 02:39:33;;;;;;;11.65;9.80;;;16.40;99.90;;;;;;5091020;28;20044;-48
2022/06/11 02:42:00;;;;;;;10.95;7.97;;;16.40;99.90;;;;;;5090325;28;20047;-47
2022/06/11 02:44:26;;;;;;;13.65;8.45;;;16.40;99.90;;;;;;5084004;28;20059;-47
2022/06/11 02:46:52;;;;;;;;;;;16.40;99.90;;;;;;5089212;28;20082;-47
2022/06/11 02:49:25;;;;;;;10.68;6.70;;;16.40;99.90;;;;;;5082828;28;19974;-47
2022/06/11 02:51:52;;;;;;;12.38;6.70;;;16.30;99.90;;;;;;5079635;28;20115;-47
2022/06/11 02:54:20;;;;;;;10.50;5.38;;;16.40;99.90;;;;;;5084352;28;20032;-47
2022/06/11 02:56:47;;;;;;;8.45;5.32;;;16.30;99.90;;;;;;5088388;28;20089;-47
2022/06/11 02:59:13;;;;;;;10.10;5.50;;;16.30;99.90;;;;;;5086157;28;20067;-48
2022/06/11 03:01:39;;;;;;;11.07;4.55;;;16.30;99.90;;;;;;5072380;28;20509;-47
2022/06/11 03:04:05;;;;;;;8.63;4.22;;;16.30;99.90;;;;;;5082212;28;20501;-47
2022/06/11 03:06:32;;;;;;;9.93;4.35;;;16.30;99.90;;;;;;5088541;28;20063;-47
2022/06/11 03:08:58;;;;;;;;;;;16.20;99.90;;;;;;5077988;28;20131;-47
2022/06/11 03:11:24;;;;;;;5.38;3.92;;;16.20;99.90;;;;;;5068336;28;19927;-47
2022/06/11 03:13:50;;;;;;;7.05;3.58;;;16.20;99.90;;;;;;5068741;28;20040;-47
2022/06/11 03:16:16;;;;;;;7.43;3.50;;;16.20;99.90;;;;;;5088167;28;20036;-47
2022/06/11 03:18:42;;;;;;;;;;;16.20;99.90;;;;;;5088904;28;20043;-47
2022/06/11 03:21:08;;;;;;;4.95;3.58;;;16.20;99.90;;;;;;5082474;28;19924;-48
2022/06/11 03:23:33;;;;;;;;;;;16.20;99.90;;;;;;5079219;28;20043;-46
2022/06/11 03:26:00;;;;;;;8.80;3.53;;;16.20;99.90;;;;;;5077329;28;19947;-47
2022/06/11 03:28:28;;;;;;;10.82;3.50;;;16.10;99.90;;;;;;5071327;28;20133;-47
2022/06/11 03:30:54;;;;;;;9.68;4.13;;;16.10;99.90;;;;;;5082489;28;20421;-46
2022/06/11 03:33:21;;;;;;;7.82;3.60;;;16.10;99.90;;;;;;5080580;28;20028;-47
2022/06/11 03:35:49;;;;;;;;;;;16.00;99.90;;;;;;5077226;28;20033;-47
2022/06/11 03:38:16;;;;;;;7.72;3.40;;;16.00;99.90;;;;;;5076834;28;19962;-46
2022/06/11 03:40:41;;;;;;;7.95;3.65;;;16.00;99.90;;;;;;5088293;28;20040;-47
2022/06/11 03:43:07;;;;;;;9.40;4.65;;;16.00;99.90;;;;;;5079058;28;20444;-47
2022/06/11 03:45:33;;;;;;;6.65;3.53;;;16.00;99.90;;;;;;5072979;28;20497;-47
2022/06/11 03:47:59;;;;;;;;;;;15.90;99.90;;;;;;5075014;28;20454;-47
2022/06/11 03:50:29;;;;;;;7.07;3.75;;;15.90;99.90;;;;;;5087380;28;19924;-48
2022/06/11 03:52:55;;;;;;;10.07;3.42;;;15.90;99.90;;;;;;5083686;28;20033;-47
2022/06/11 03:55:22;;;;;;;8.02;3.60;;;15.90;99.90;;;;;;5068416;28;20086;-46
2022/06/11 03:57:47;;;;;;;9.50;2.85;;;15.90;99.90;;;;;;5075726;28;20041;-47
2022/06/11 04:00:16;;;;;;;12.80;3.47;;;15.90;99.90;;;;;;5080358;28;20104;-47
2022/06/11 04:02:42;;;;;;;10.02;3.97;;;15.90;99.90;;;;;;5085203;28;20051;-47
2022/06/11 04:05:08;;;;;;;7.25;4.35;;;15.90;99.90;;;;;;5074511;28;20044;-47
2022/06/11 04:07:35;;;;;;;;;;;15.90;99.90;;;;;;5086274;28;20047;-47
2022/06/11 04:10:01;;;;;;;7.80;3.63;;;15.90;99.90;;;;;;5077467;28;20288;-47
2022/06/11 04:12:26;;;;;;;5.95;4.07;;;15.90;99.90;;;;;;5086979;28;20032;-47
2022/06/11 04:14:52;;;;;;;9.88;4.30;;;16.00;99.90;;;;;;5089264;28;20147;-47
2022/06/11 04:17:24;;;;;;;8.75;4.20;;;16.00;99.90;;;;;;5088928;28;20036;-47
2022/06/11 04:19:50;;;;;;;7.63;4.32;;;16.00;99.90;;;;;;5089097;28;20403;-47
2022/06/11 04:22:18;;;;;;;7.82;3.80;;;16.00;99.90;;;;;;5074371;28;20090;-48
2022/06/11 04:24:44;;;;;;;9.95;4.30;;;16.00;99.90;;;;;;5068978;28;20043;-48
2022/06/11 04:27:12;;;;;;;5.65;3.75;;;16.00;99.90;;;;;;5075241;28;20044;-47
2022/06/11 04:29:45;;;;;;;10.27;4.78;;;16.00;99.90;;;;;;5091232;28;20036;-47
2022/06/11 04:32:15;;;;;;;7.10;5.00;;;16.00;99.90;;;;;;5087636;28;20036;-49
2022/06/11 04:34:43;;;;;;;6.88;4.60;;;16.00;99.90;;;;;;5072332;28;20036;-47
2022/06/11 04:37:13;;;;;;;6.45;4.82;;;16.00;99.90;;;;;;5104975;28;20044;-47
2022/06/11 04:39:41;;;;;;;9.63;4.40;;;15.90;99.90;;;;;;5076363;28;20041;-47
2022/06/11 04:42:07;;;;;;;7.60;3.95;;;16.00;99.90;;;;;;5073332;28;20032;-47
2022/06/11 04:44:32;;;;;;;6.57;4.10;;;16.00;99.90;;;;;;5090517;28;20097;-48
2022/06/11 04:46:58;;;;;;;8.75;4.60;;;16.00;99.90;;;;;;5091366;28;20521;-47
2022/06/11 04:49:24;;;;;;;10.10;5.25;;;16.00;99.90;;;;;;5074849;28;20036;-47
2022/06/11 04:51:50;;;;;;;10.10;4.32;;;16.00;99.90;;;;;;5090379;28;20036;-46
2022/06/11 04:54:16;;;;;;;9.27;4.57;;;16.00;99.90;;;;;;5075377;28;20047;-47
2022/06/11 04:56:41;;;;;;;9.05;4.95;;;16.00;99.90;;;;;;5077107;28;20035;-47
2022/06/11 04:59:07;;;;;;;6.85;4.78;;;16.00;99.90;;;;;;5081007;28;20036;-47
2022/06/11 05:01:33;;;;;;;10.15;5.10;;;16.00;99.90;;;;;;5090391;28;20040;-47
2022/06/11 05:03:59;;;;;;;9.73;4.75;;;16.00;99.90;;;;;;5075619;28;20119;-48
2022/06/11 05:06:29;;;;;;;7.20;4.05;;;16.10;99.90;;;;;;5076437;28;20467;-48
2022/06/11 05:08:55;;;;;;;7.45;4.47;;;16.10;99.90;;;;;;5086186;28;20090;-47
2022/06/11 05:11:21;;;;;;;;;;;16.10;99.90;;;;;;5076070;28;20052;-47
2022/06/11 05:13:47;;;;;;;7.72;4.28;;;16.10;99.90;;;;;;5079507;28;19927;-48
2022/06/11 05:16:16;;;;;;;8.20;4.07;;;16.10;99.90;;;;;;5081340;28;20043;-47
2022/06/11 05:18:41;;;;;;;16.65;4.53;;;16.20;99.90;;;;;;5082249;28;20072;-48
2022/06/11 05:21:07;;;;;;;10.90;3.65;;;16.20;99.90;;;;;;5084130;28;20036;-48
2022/06/11 05:23:33;;;;;;;8.85;4.03;;;16.20;99.90;;;;;;5080304;28;20610;-48
2022/06/11 05:25:59;;;;;;;5.22;3.28;;;16.20;99.90;;;;;;5071517;28;20414;-47
2022/06/11 05:28:29;;;;;;;10.63;3.78;;;16.20;99.90;;;;;;5072758;28;20141;-47
2022/06/11 05:30:56;;;;;;;5.97;3.80;;;16.30;99.90;;;;;;5079793;28;20092;-47
2022/06/11 05:33:22;;;;;;;8.02;3.60;;;16.30;99.90;;;;;;5071216;28;20108;-48
2022/06/11 05:35:49;;;;;;;6.22;2.92;;;16.30;99.90;;;;;;5075221;28;20170;-48
2022/06/11 05:38:22;;;;;;;14.13;4.05;;;16.40;99.90;;;;;;5071393;28;20040;-48
2022/06/11 05:40:49;;;;;;;11.85;3.95;;;16.40;99.90;;;;;;5088736;28;20043;-48
2022/06/11 05:43:16;;;;;;;14.65;3.00;;;16.50;99.90;;;;;;5080371;28;20044;-47
2022/06/11 05:45:50;;;;;;;10.43;2.70;;;16.50;99.90;;;;;;5085406;28;20044;-49
2022/06/11 05:48:20;;;;;;;10.50;3.35;;;16.60;99.90;;;;;;5073569;28;20115;-47
2022/06/11 05:50:48;;;;;;;12.23;3.50;;;16.60;99.90;;;;;;5070991;28;20048;-47
2022/06/11 05:53:17;;;;;;;13.38;3.38;;;16.60;99.90;;;;;;5078891;28;20107;-48
2022/06/11 05:55:45;;;;;;;10.88;2.60;;;16.60;99.90;;;;;;5090759;28;20051;-48
2022/06/11 05:58:19;;;;;;;15.52;3.25;;;16.70;99.90;;;;;;5089672;28;20075;-48
2022/06/11 06:00:45;;;;;;;11.73;3.20;;;16.70;99.90;;;;;;5091357;28;20047;-47
2022/06/11 06:03:12;;;;;;;19.98;3.60;;;16.70;99.90;;;;;;5077509;28;20504;-47
2022/06/11 06:05:39;;;;;;;11.13;3.63;;;16.80;99.90;;;;;;5072533;28;20499;-47
2022/06/11 06:08:05;;;;;;;11.48;2.72;;;16.80;99.90;;;;;;5077112;28;20052;-47
2022/06/11 06:10:31;;;;;;;13.80;3.97;;;16.80;99.90;;;;;;5080259;28;20033;-47
2022/06/11 06:12:57;;;;;;;13.23;3.20;;;16.90;99.90;;;;;;5087534;28;20118;-48
2022/06/11 06:15:25;;;;;;;13.55;3.80;;;16.90;99.90;;;;;;5083236;28;20071;-47
2022/06/11 06:17:52;;;;;;;21.60;3.75;;;16.90;99.90;;;;;;5084803;28;20040;-47
2022/06/11 06:20:20;;;;;;;19.77;4.40;;;17.00;99.90;;;;;;5090981;28;20040;-48
2022/06/11 06:22:45;;;;;;;15.70;3.28;;;17.10;99.90;;;;;;5089685;28;20072;-47
2022/06/11 06:25:15;;;;;;;17.27;4.03;;;17.10;99.90;;;;;;5088226;28;20079;-47
2022/06/11 06:27:41;;;;;;;13.30;3.28;;;17.10;99.90;;;;;;5071813;28;20436;-47
2022/06/11 06:30:07;;;;;;;13.43;3.22;;;17.10;99.90;;;;;;5070364;28;20048;-49
2022/06/11 06:32:32;;;;;;;;;;;17.20;99.90;;;;;;5076560;28;20501;-48
2022/06/11 06:34:58;;;;;;;18.60;3.78;;;17.20;99.90;;;;;;5086835;28;19916;-47
2022/06/11 06:37:23;;;;;;;12.07;3.95;;;17.30;99.90;;;;;;5079167;28;20068;-48
2022/06/11 06:39:49;;;;;;;16.25;3.25;;;17.30;99.90;;;;;;5070334;28;20043;-48
2022/06/11 06:42:15;;;;;;;15.30;2.80;;;17.40;99.90;;;;;;5068155;28;20048;-47
2022/06/11 06:44:40;;;;;;;15.98;3.72;;;17.40;99.90;;;;;;5072232;28;20327;-48
2022/06/11 06:47:06;;;;;;;14.75;3.83;;;17.50;99.90;;;;;;5070217;28;20040;-47
2022/06/11 06:49:32;;;;;;;20.50;3.90;;;17.50;99.90;;;;;;5078888;28;20040;-48
2022/06/11 06:51:57;;;;;;;13.95;3.95;;;17.60;99.90;;;;;;5087938;28;20127;-47
2022/06/11 06:54:23;;;;;;;13.63;4.07;;;17.60;99.90;;;;;;5088566;28;20058;-47
2022/06/11 06:56:49;;;;;;;25.50;4.32;;;17.60;99.90;;;;;;5073278;28;20078;-49
2022/06/11 06:59:14;;;;;;;17.75;3.92;;;17.60;99.90;;;;;;5070591;28;20490;-49
2022/06/11 07:01:40;;;;;;;19.10;4.32;;;17.70;99.90;;;;;;5079638;28;20174;-48
2022/06/11 07:04:06;;;;;;;23.98;3.90;;;17.70;99.90;;;;;;5089859;28;20047;-47
2022/06/11 07:06:34;;;;;;;14.57;3.17;;;17.80;99.90;;;;;;5087598;28;20036;-47
2022/06/11 07:09:00;;;;;;;21.90;3.65;;;17.80;99.90;;;;;;5090052;28;20532;-47
2022/06/11 07:11:25;;;;;;;19.50;5.10;;;17.80;99.90;;;;;;5088982;28;20123;-48
2022/06/11 07:13:51;;;;;;;17.65;4.45;;;17.90;99.90;;;;;;5087547;28;20119;-48
2022/06/11 07:16:22;;;;;;;17.63;3.72;;;18.00;99.90;;;;;;5083881;28;20055;-48
2022/06/11 07:18:56;;;;;;;17.60;4.05;;;18.00;99.90;;;;;;5075707;28;20489;-48
2022/06/11 07:21:29;;;;;;;17.58;3.15;;;18.00;99.90;;;;;;5074592;28;20085;-48
2022/06/11 07:23:59;;;;;;;16.00;4.15;;;18.10;99.90;;;;;;5068570;28;20040;-48
2022/06/11 07:26:33;;;;;;;18.88;3.92;;;18.10;99.90;;;;;;5073359;28;20485;-47
2022/06/11 07:29:03;;;;;;;19.38;3.67;;;18.20;99.90;;;;;;5070072;28;20083;-47
2022/06/11 07:31:30;;;;;;;23.33;4.55;;;18.20;99.90;;;;;;5070235;28;20112;-48
2022/06/11 07:33:57;;;;;;;19.35;4.68;;;18.30;99.90;;;;;;5068925;28;20036;-47
2022/06/11 07:36:22;;;;;;;;;;;18.30;99.90;;;;;;5069905;28;20425;-47
2022/06/11 07:38:48;;;;;;;24.27;4.30;;;18.40;99.90;;;;;;5070007;28;20097;-48
2022/06/11 07:41:14;;;;;;;13.32;3.40;;;18.40;99.90;;;;;;5071890;28;20135;-48
2022/06/11 07:43:40;;;;;;;16.27;3.63;;;18.50;99.90;;;;;;5068891;28;20524;-48
2022/06/11 07:46:05;;;;;;;20.85;3.90;;;18.50;99.90;;;;;;5083160;28;20554;-47
2022/06/11 07:48:31;;;;;;;20.98;4.70;;;18.50;99.90;;;;;;5084014;28;20044;-48
2022/06/11 07:50:56;;;;;;;21.42;3.88;;;18.60;99.90;;;;;;5078647;28;20513;-47
2022/06/11 07:53:23;;;;;;;23.73;4.78;;;18.70;99.90;;;;;;5086326;28;20370;-47
2022/06/11 07:55:51;;;;;;;15.50;3.80;;;18.70;99.90;;;;;;5078314;28;20097;-47
2022/06/11 07:58:19;;;;;;;17.60;3.45;;;18.70;99.90;;;;;;5083540;28;20414;-47
2022/06/11 08:00:49;;;;;;;18.17;3.40;;;18.80;99.90;;;;;;5088815;28;20483;-48
2022/06/11 08:03:16;;;;;;;19.70;4.80;;;18.90;99.90;;;;;;5091614;28;20497;-48
2022/06/11 08:05:42;;;;;;;23.02;4.93;;;18.90;99.90;;;;;;5093320;28;20443;-48
2022/06/11 08:08:09;;;;;;;17.00;3.75;;;19.00;99.90;;;;;;5085246;28;20044;-48
2022/06/11 08:10:36;;;;;;;17.08;5.65;;;19.10;99.90;;;;;;5073618;28;20045;-48
2022/06/11 08:13:02;;;;;;;17.40;3.38;;;19.10;99.90;;;;;;5070723;28;20391;-48
2022/06/11 08:15:28;;;;;;;;;;;19.20;99.90;;;;;;5073490;28;20041;-48
2022/06/11 08:17:54;;;;;;;17.08;3.88;;;19.20;99.90;;;;;;5074047;28;19994;-47
2022/06/11 08:20:23;;;;;;;22.40;3.15;;;19.20;99.90;;;;;;5072598;28;20462;-47
2022/06/11 08:22:50;;;;;;;18.70;3.83;;;19.30;99.90;;;;;;5074783;28;20443;-47
2022/06/11 08:25:16;;;;;;;18.50;3.70;;;19.30;99.90;;;;;;5072933;28;20064;-48
2022/06/11 08:27:43;;;;;;;25.23;4.50;;;19.40;99.90;;;;;;5080296;28;20029;-47
2022/06/11 08:30:11;;;;;;;21.15;4.25;;;19.40;99.90;;;;;;5091810;28;20378;-48
2022/06/11 08:32:36;;;;;;;21.30;4.22;;;19.50;99.90;;;;;;5092147;28;20497;-48
2022/06/11 08:35:02;;;;;;;23.15;4.00;;;19.50;99.90;;;;;;5092599;28;20070;-48
2022/06/11 08:37:28;;;;;;;19.85;5.03;;;19.50;99.90;;;;;;5077369;28;20492;-48
2022/06/11 08:39:53;;;;;;;17.83;4.25;;;19.50;99.90;;;;;;5090842;28;20036;-47
2022/06/11 08:42:36;;;;;;;;;;;19.60;99.90;;;;;;5072737;28;20064;-47
2022/06/11 08:45:36;;;;;;;23.38;4.45;;;19.60;99.90;;;;;;5081251;28;19962;-48
2022/06/11 08:48:25;;;;;;;26.08;4.35;;;19.60;99.90;;;;;;5089039;28;20402;-49
2022/06/11 08:51:19;;;;;;;19.17;3.53;;;19.60;99.90;;;;;;5073919;28;20130;-47
2022/06/11 08:53:46;;;;;;;18.35;4.60;;;19.70;99.90;;;;;;5080074;28;20460;-48
2022/06/11 08:56:40;;;;;;;22.33;4.10;;;19.70;99.90;;;;;;5072809;28;20072;-47
2022/06/11 08:59:14;;;;;;;17.83;3.58;;;19.80;99.90;;;;;;5080682;28;20043;-47
2022/06/11 09:01:47;;;;;;;22.92;5.22;;;20.00;99.90;;;;;;5074101;28;20041;-46
2022/06/11 09:04:19;;;;;;;18.67;3.63;;;20.10;99.90;;;;;;5072299;28;20318;-48
2022/06/11 09:07:17;;;;;;;24.70;5.45;;;20.20;99.90;;;;;;5072090;28;20051;-47
2022/06/11 09:09:57;;;;;;;21.55;4.22;;;20.30;99.90;;;;;;5071996;28;20042;-48
2022/06/11 09:12:41;;;;;;;22.80;4.38;;;20.30;99.90;;;;;;5075808;28;20036;-48
2022/06/11 09:15:30;;;;;;;16.15;3.40;;;20.50;99.90;;;;;;5071386;28;20036;-48
2022/06/11 09:18:24;;;;;;;18.63;4.40;;;20.60;99.90;;;;;;5089988;28;20044;-48
2022/06/11 09:21:18;;;;;;;18.38;4.05;;;20.60;99.90;;;;;;5084927;28;20067;-49
2022/06/11 09:23:52;;;;;;;18.60;3.65;;;20.70;99.90;;;;;;5071283;28;20040;-48
2022/06/11 09:26:32;;;;;;;22.10;5.03;;;20.70;99.90;;;;;;5089696;28;20032;-48
2022/06/11 09:29:09;;;;;;;20.85;3.67;;;20.70;99.90;;;;;;5071150;28;20036;-48
2022/06/11 09:31:55;;;;;;;16.83;3.40;;;20.80;99.90;;;;;;5080968;28;20043;-48
2022/06/11 09:34:42;;;;;;;14.98;3.30;;;20.80;99.90;;;;;;5078347;28;20079;-48
2022/06/11 09:37:14;;;;;;;24.27;4.03;;;20.80;99.90;;;;;;5079009;28;20036;-47
2022/06/11 09:40:02;;;;;;;14.35;2.90;;;20.80;99.90;;;;;;5091107;28;20039;-48
2022/06/11 09:42:30;;;;;;;20.70;4.03;;;20.80;99.90;;;;;;5071080;28;20442;-48
2022/06/11 09:45:13;;;;;;;18.98;3.28;;;20.90;99.90;;;;;;5077082;28;20561;-47
2022/06/11 09:48:02;;;;;;;16.85;3.03;;;20.90;99.90;;;;;;5074484;28;20051;-48
2022/06/11 09:50:38;;;;;;;12.90;3.35;;;20.90;99.90;;;;;;5083393;28;20051;-48
2022/06/11 09:53:21;;;;;;;13.77;2.70;;;21.00;99.90;;;;;;5090296;28;20048;-49
2022/06/11 09:56:09;;;;;;;16.90;2.95;;;21.10;99.90;;;;;;5091594;28;20574;-48
2022/06/11 09:58:54;;;;;;;15.45;2.92;;;21.20;99.90;;;;;;5082367;28;20054;-48
2022/06/11 10:01:29;;;;;;;21.05;3.42;;;21.20;99.90;;;;;;5088615;28;20651;-48
2022/06/11 10:04:17;;;;;;;10.40;2.13;;;21.20;99.90;;;;;;5088461;28;20065;-49
2022/06/11 10:06:55;;;;;;;16.88;2.53;;;21.10;99.90;;;;;;5083054;28;20036;-47
2022/06/11 10:09:27;;;;;;;13.30;3.05;;;21.10;99.90;;;;;;5069705;28;20044;-47
2022/06/11 10:12:03;;;;;;;10.15;2.13;;;21.00;99.90;;;;;;5081834;28;20105;-49
2022/06/11 10:14:39;;;;;;;13.18;3.22;;;21.10;99.90;;;;;;5073460;28;20062;-48
2022/06/11 10:17:30;;;;;;;14.90;1.90;;;21.10;99.90;;;;;;5071012;28;20036;-48
2022/06/11 10:20:20;;;;;;;15.98;2.53;;;21.10;99.90;;;;;;5072057;28;20360;-48
2022/06/11 10:23:04;;;;;;;16.70;2.92;;;21.20;99.90;;;;;;5069449;28;20414;-48
2022/06/11 10:25:47;;;;;;;16.77;3.45;;;21.40;99.90;;;;;;5071789;28;20036;-48
2022/06/11 10:28:19;;;;;;;13.82;2.50;;;21.40;99.90;;;;;;5076521;28;20033;-48
2022/06/11 10:30:51;;;;;;;16.45;2.45;;;21.50;99.90;;;;;;5080608;28;20401;-47
2022/06/11 10:33:41;;;;;;;11.18;1.90;;;21.50;99.90;;;;;;5089729;28;20039;-48
2022/06/11 10:36:15;;;;;;;19.50;2.53;;;21.70;99.70;;;;;;5089344;28;20036;-49
2022/06/11 10:39:21;;;;;;;9.40;1.85;;;21.80;99.90;;;;;;5085335;28;20285;-48
2022/06/11 10:42:04;;;;;;;13.13;1.65;;;21.90;98.60;;;;;;5077306;28;20051;-48
2022/06/11 10:44:39;;;;;;;9.20;1.63;;;21.90;98.50;;;;;;5083061;28;20040;-49
2022/06/11 10:47:29;;;;;;;9.55;1.55;;;22.00;98.10;;;;;;5090102;28;20378;-48
2022/06/11 10:50:18;;;;;;;15.10;2.30;;;22.00;97.70;;;;;;5088535;28;20032;-48
2022/06/11 10:53:17;;;;;;;15.40;2.63;;;22.10;97.80;;;;;;5072857;28;20158;-48
2022/06/11 10:55:50;;;;;;;9.82;2.15;;;22.10;97.00;;;;;;5073385;28;20047;-49
2022/06/11 10:58:40;;;;;;;10.60;1.83;;;22.10;98.00;;;;;;5085421;28;20036;-48
2022/06/11 11:01:10;;;;;;;9.35;1.70;;;22.10;96.40;;;;;;5080965;28;20055;-48
2022/06/11 11:03:58;;;;;;;11.63;1.90;;;22.10;97.10;;;;;;5069652;28;20436;-48
2022/06/11 11:06:27;;;;;;;11.10;1.98;;;22.10;95.60;;;;;;5074900;28;20036;-48
2022/06/11 11:08:59;;;;;;;13.65;2.35;;;22.10;96.50;;;;;;5086033;28;20043;-48
2022/06/11 11:11:27;;;;;;;9.88;1.75;;;22.10;96.00;;;;;;5087580;28;20043;-47
2022/06/11 11:14:29;;;;;;;13.63;2.30;;;22.10;96.20;;;;;;5088784;28;20040;-48
2022/06/11 11:17:02;;;;;;;12.48;2.03;;;22.10;95.60;;;;;;5060270;28;20049;-47
2022/06/11 11:19:31;;;;;;;9.38;1.52;;;22.00;96.00;;;;;;5068801;28;20048;-49
2022/06/11 11:22:05;;;;;;;12.60;2.03;;;22.00;96.60;;;;;;5072200;28;20047;-49
2022/06/11 11:24:36;;;;;;;9.52;1.90;;;22.00;96.30;;;;;;5088894;28;20528;-48
2022/06/11 11:27:16;;;;;;;11.13;1.55;;;22.10;96.80;;;;;;5070200;28;20063;-47
2022/06/11 11:29:57;;;;;;;11.82;1.58;;;22.20;96.50;;;;;;5069456;28;20045;-47
2022/06/11 11:32:35;;;;;;;14.93;2.17;;;22.30;96.00;;;;;;5071675;28;20094;-47
2022/06/11 11:35:27;;;;;;;12.80;1.77;;;22.30;95.70;;;;;;5069286;28;20478;-48
2022/06/11 11:38:22;;;;;;;15.02;2.08;;;22.40;95.50;;;;;;5083826;28;20040;-48
2022/06/11 11:40:54;;;;;;;18.27;1.90;;;22.40;95.70;;;;;;5072188;28;20451;-49
2022/06/11 11:43:21;;;;;;;12.57;2.25;;;22.50;95.30;;;;;;5091254;28;20051;-47
2022/06/11 11:45:54;;;;;;;7.78;2.20;;;22.50;94.50;;;;;;5093626;28;20051;-48
2022/06/11 11:48:41;;;;;;;12.07;1.85;;;22.50;94.80;;;;;;5091858;28;20040;-48
2022/06/11 11:51:27;;;;;;;14.75;1.98;;;22.50;95.20;;;;;;5093308;28;20050;-49
2022/06/11 11:54:13;;;;;;;19.25;3.88;;;22.50;94.90;;;;;;5091214;28;20036;-48
2022/06/11 11:56:59;;;;;;;9.63;1.37;;;22.50;93.80;;;;;;5092524;28;20520;-49
2022/06/11 11:59:28;;;;;;;6.90;1.33;;;22.60;93.90;;;;;;5073705;28;20277;-47
2022/06/11 12:02:21;;;;;;;12.38;2.50;;;22.60;94.50;;;;;;5072689;28;20048;-48
2022/06/11 12:04:55;;;;;;;15.45;2.78;;;22.70;94.50;;;;;;5072691;28;20044;-47
2022/06/11 12:07:36;;;;;;;12.05;2.13;;;22.70;95.40;;;;;;5072563;28;20040;-47
2022/06/11 12:10:35;;;;;;;9.77;1.73;;;22.80;94.00;;;;;;5073423;28;20055;-48
2022/06/11 12:13:02;;;;;;;9.07;1.98;;;22.90;93.10;;;;;;5064612;28;20056;-48
2022/06/11 12:15:33;;;;;;;10.68;1.80;;;22.70;93.60;;;;;;5073132;28;20040;-47
2022/06/11 12:18:14;;;;;;;11.75;1.98;;;22.60;94.00;;;;;;5072498;28;20817;-48
2022/06/11 12:20:51;;;;;;;11.20;1.55;;;22.70;94.70;;;;;;5073308;28;20086;-48
2022/06/11 12:23:34;;;;;;;11.38;2.10;;;22.60;94.40;;;;;;5073081;28;20036;-48
2022/06/11 12:26:08;;;;;;;14.63;1.92;;;22.80;94.60;;;;;;5072433;28;20090;-47
2022/06/11 12:28:43;;;;;;;15.50;1.75;;;22.80;93.10;;;;;;5071456;28;20074;-49
2022/06/11 12:31:11;;;;;;;16.77;1.95;;;22.90;94.30;;;;;;5076724;28;20040;-49
2022/06/11 12:33:42;;;;;;;9.38;2.50;;;22.90;93.90;;;;;;5091485;28;20036;-48
2022/06/11 12:36:17;;;;;;;9.05;1.88;;;23.00;93.80;;;;;;5090669;28;20047;-47
2022/06/11 12:39:06;;;;;;;10.13;1.42;;;23.00;93.50;;;;;;5092853;28;20059;-49
2022/06/11 12:41:54;;;;;;;9.35;2.13;;;23.10;93.60;;;;;;5090315;28;20132;-47
2022/06/11 12:44:48;;;;;;;10.07;1.58;;;23.20;93.70;;;;;;5091200;28;20050;-48
2022/06/11 12:47:40;;;;;;;11.07;1.73;;;23.30;93.20;;;;;;5071548;28;20060;-48
2022/06/11 12:50:48;;;;;;;11.35;1.98;;;23.30;93.60;;;;;;5072627;28;20080;-49
2022/06/11 12:53:47;;;;;;;11.68;2.63;;;23.40;93.50;;;;;;5065335;28;20052;-48
2022/06/11 12:56:31;;;;;;;10.65;2.15;;;23.40;93.30;;;;;;5079453;28;20087;-47
2022/06/11 12:59:25;;;;;;;6.38;2.05;;;23.50;93.20;;;;;;5072645;28;20041;-48
2022/06/11 13:02:27;;;;;;;13.35;2.15;;;23.40;92.80;;;;;;5083921;28;20039;-48
2022/06/11 13:05:19;;;;;;;11.65;2.22;;;23.50;92.00;;;;;;5081960;28;20141;-48
2022/06/11 13:08:08;;;;;;;11.82;2.00;;;23.30;92.10;;;;;;5085769;28;20040;-48
2022/06/11 13:10:55;;;;;;;22.00;3.22;;;23.20;92.90;;;;;;5092192;28;20047;-48
2022/06/11 13:13:53;;;;;;;14.52;2.22;;;23.20;92.70;;;;;;5090984;28;20071;-49